Time;durP1;ratioP1;P1;durP2;ratioP2;P2;SDS_P1;SDS_P2;PMS_P1;PMS_P2;Temp;Humidity;BMP_temperature;BMP_pressure;BME280_temperature;BME280_humidity;BME280_pressure;Samples;Min_cycle;Max_cycle;Signal;HPM_P1;HPM_P2
2023/06/25 00:00:44;;;;;;;7.88;6.28;;;;;;;;;;4997967;28;92136;-80
2023/06/25 00:03:11;;;;;;;9.57;6.47;;;;;;;;;;5011078;28;92300;-80
2023/06/25 00:05:38;;;;;;;10.23;6.72;;;;;;;;;;5014058;28;94851;-79
2023/06/25 00:08:05;;;;;;;8.43;5.65;;;;;;;;;;5003826;28;94791;-80
2023/06/25 00:10:32;;;;;;;11.73;7.05;;;;;;;;;;5005371;28;94748;-80
2023/06/25 00:12:58;;;;;;;13.52;7.50;;;;;;;;;;5016134;28;92147;-80
2023/06/25 00:15:27;;;;;;;10.77;6.65;;;;;;;;;;5005913;28;92353;-80
2023/06/25 00:17:53;;;;;;;8.98;7.18;;;;;;;;;;5004200;28;92434;-80
2023/06/25 00:20:20;;;;;;;16.05;7.47;;;;;;;;;;5020748;28;92492;-80
2023/06/25 00:22:46;;;;;;;9.57;7.70;;;;;;;;;;5026126;28;92164;-80
2023/06/25 00:25:32;;;;;;;9.68;6.93;;;;;;;;;;5011073;28;92191;-80
2023/06/25 00:27:59;;;;;;;11.98;7.70;;;;;;;;;;5025897;28;94821;-80
2023/06/25 00:30:26;;;;;;;10.13;7.63;;;;;;;;;;5023954;28;94498;-80
2023/06/25 00:32:56;;;;;;;10.10;7.88;;;;;;;;;;5003829;28;92401;-80
2023/06/25 00:35:26;;;;;;;6.82;6.10;;;;;;;;;;5023345;28;92817;-80
2023/06/25 00:38:01;;;;;;;9.68;7.07;;;;;;;;;;4998776;28;93231;-80
2023/06/25 00:40:28;;;;;;;9.57;7.00;;;;;;;;;;5026158;28;92102;-80
2023/06/25 00:42:58;;;;;;;11.27;8.57;;;;;;;;;;5009622;28;93897;-80
2023/06/25 00:45:26;;;;;;;8.18;7.00;;;;;;;;;;4989873;28;94907;-80
2023/06/25 00:47:53;;;;;;;9.77;7.47;;;;;;;;;;5005377;28;94440;-80
2023/06/25 00:50:21;;;;;;;10.18;7.50;;;;;;;;;;5002053;28;92541;-79
2023/06/25 00:52:51;;;;;;;8.13;6.53;;;;;;;;;;5000038;28;92045;-80
2023/06/25 00:55:18;;;;;;;8.85;7.50;;;;;;;;;;5002681;28;94793;-80
2023/06/25 00:57:45;;;;;;;10.60;6.93;;;;;;;;;;5006201;28;92311;-80
2023/06/25 01:00:14;;;;;;;15.25;7.75;;;;;;;;;;5006221;28;92607;-80
2023/06/25 01:02:44;;;;;;;9.98;7.38;;;;;;;;;;4988699;28;95846;-80
2023/06/25 01:05:14;;;;;;;11.23;7.53;;;;;;;;;;5012215;28;92547;-79
2023/06/25 01:07:43;;;;;;;10.25;7.32;;;;;;;;;;5005008;28;93737;-79
2023/06/25 01:10:13;;;;;;;10.10;6.47;;;;;;;;;;4988513;28;95823;-80
2023/06/25 01:12:40;;;;;;;10.07;6.82;;;;;;;;;;5004587;28;94716;-80
2023/06/25 01:15:08;;;;;;;11.15;8.05;;;;;;;;;;5005096;28;92376;-80
2023/06/25 01:17:36;;;;;;;10.77;7.15;;;;;;;;;;4987845;28;94184;-80
2023/06/25 01:20:05;;;;;;;8.05;6.10;;;;;;;;;;4999808;28;94498;-80
2023/06/25 01:22:32;;;;;;;10.60;6.45;;;;;;;;;;5001088;28;92425;-80
2023/06/25 01:25:00;;;;;;;9.70;6.88;;;;;;;;;;5004834;28;94843;-80
2023/06/25 01:27:26;;;;;;;8.73;6.15;;;;;;;;;;5005157;28;92315;-80
2023/06/25 01:29:54;;;;;;;7.13;6.30;;;;;;;;;;5005604;28;92013;-79
2023/06/25 01:32:22;;;;;;;9.82;6.70;;;;;;;;;;5002930;28;92386;-79
2023/06/25 01:34:50;;;;;;;9.10;7.10;;;;;;;;;;4988603;28;92242;-79
2023/06/25 01:37:17;;;;;;;9.27;6.18;;;;;;;;;;5004214;28;92094;-80
2023/06/25 01:39:48;;;;;;;13.95;7.43;;;;;;;;;;5011062;28;92708;-80
2023/06/25 01:42:15;;;;;;;13.07;7.40;;;;;;;;;;5010974;28;92473;-80
2023/06/25 01:44:41;;;;;;;8.77;7.50;;;;;;;;;;5007251;28;94861;-80
2023/06/25 01:47:08;;;;;;;9.82;7.28;;;;;;;;;;4991935;28;96904;-79
2023/06/25 01:49:34;;;;;;;10.75;6.90;;;;;;;;;;5009589;28;92425;-80
2023/06/25 01:52:02;;;;;;;16.10;6.35;;;;;;;;;;5008138;28;94924;-80
2023/06/25 01:54:29;;;;;;;12.10;7.18;;;;;;;;;;5000828;28;93443;-80
2023/06/25 01:56:56;;;;;;;13.07;7.13;;;;;;;;;;5011235;28;94504;-80
2023/06/25 01:59:23;;;;;;;12.82;7.60;;;;;;;;;;4991353;28;94196;-79
2023/06/25 02:01:49;;;;;;;10.48;8.32;;;;;;;;;;5012919;28;92247;-80
2023/06/25 02:04:16;;;;;;;10.95;7.80;;;;;;;;;;5004255;28;92964;-80
2023/06/25 02:06:43;;;;;;;11.40;8.20;;;;;;;;;;5024697;28;92457;-80
2023/06/25 02:09:10;;;;;;;12.38;9.52;;;;;;;;;;5002087;28;95060;-80
2023/06/25 02:11:37;;;;;;;12.05;9.88;;;;;;;;;;4999074;28;92592;-80
2023/06/25 02:14:04;;;;;;;12.88;9.60;;;;;;;;;;4994613;28;92208;-80
2023/06/25 02:16:31;;;;;;;11.55;9.15;;;;;;;;;;5004366;28;92367;-80
2023/06/25 02:18:59;;;;;;;12.80;9.30;;;;;;;;;;5003852;28;93049;-80
2023/06/25 02:21:28;;;;;;;11.90;8.35;;;;;;;;;;5008449;28;92763;-80
2023/06/25 02:23:55;;;;;;;10.68;8.20;;;;;;;;;;5010174;28;93060;-79
2023/06/25 02:26:21;;;;;;;12.93;8.68;;;;;;;;;;5007048;28;94330;-80
2023/06/25 02:28:48;;;;;;;19.58;12.55;;;;;;;;;;5002071;28;92375;-80
2023/06/25 02:31:14;;;;;;;10.68;7.75;;;;;;;;;;5004681;28;92392;-80
2023/06/25 02:33:41;;;;;;;11.00;8.05;;;;;;;;;;5022198;28;94767;-80
2023/06/25 02:36:08;;;;;;;13.20;9.00;;;;;;;;;;5027926;28;91971;-80
2023/06/25 02:38:34;;;;;;;10.23;7.57;;;;;;;;;;5010693;28;91971;-80
2023/06/25 02:41:01;;;;;;;11.77;8.25;;;;;;;;;;5012622;28;94991;-80
2023/06/25 02:43:27;;;;;;;9.98;8.40;;;;;;;;;;5019191;28;93783;-80
2023/06/25 02:45:54;;;;;;;12.07;7.65;;;;;;;;;;5016968;28;91987;-80
2023/06/25 02:48:23;;;;;;;12.75;7.75;;;;;;;;;;5011903;28;94982;-80
2023/06/25 02:50:49;;;;;;;10.27;7.18;;;;;;;;;;5009628;28;92960;-80
2023/06/25 02:53:16;;;;;;;12.20;8.32;;;;;;;;;;5013111;28;93131;-79
2023/06/25 02:55:42;;;;;;;9.40;7.18;;;;;;;;;;5008453;28;92009;-80
2023/06/25 02:58:09;;;;;;;9.73;8.25;;;;;;;;;;5007899;28;94094;-79
2023/06/25 03:00:36;;;;;;;10.02;7.90;;;;;;;;;;5017505;28;94138;-80
2023/06/25 03:03:03;;;;;;;15.45;7.55;;;;;;;;;;4995309;28;92667;-79
2023/06/25 03:05:30;;;;;;;11.98;8.70;;;;;;;;;;5009161;28;93933;-80
2023/06/25 03:07:58;;;;;;;11.77;8.35;;;;;;;;;;5009561;28;94104;-80
2023/06/25 03:10:29;;;;;;;10.20;8.13;;;;;;;;;;4992728;28;92236;-80
2023/06/25 03:12:56;;;;;;;9.57;7.60;;;;;;;;;;5023545;28;92061;-79
2023/06/25 03:15:23;;;;;;;10.43;7.45;;;;;;;;;;5007602;28;92026;-79
2023/06/25 03:17:50;;;;;;;10.50;8.13;;;;;;;;;;5008944;28;95026;-80
2023/06/25 03:20:17;;;;;;;10.95;8.70;;;;;;;;;;5013090;28;94368;-79
2023/06/25 03:22:44;;;;;;;11.63;9.02;;;;;;;;;;5011963;28;94883;-79
2023/06/25 03:25:11;;;;;;;12.63;8.80;;;;;;;;;;5024353;28;94332;-79
2023/06/25 03:27:42;;;;;;;14.25;9.60;;;;;;;;;;5002990;28;95172;-79
2023/06/25 03:30:09;;;;;;;17.38;10.15;;;;;;;;;;5011613;28;92309;-80
2023/06/25 03:32:35;;;;;;;12.43;9.10;;;;;;;;;;5018028;28;92146;-80
2023/06/25 03:35:03;;;;;;;12.45;8.98;;;;;;;;;;5005940;28;94287;-80
2023/06/25 03:37:31;;;;;;;10.65;8.32;;;;;;;;;;4996657;28;92159;-80
2023/06/25 03:39:57;;;;;;;15.07;10.15;;;;;;;;;;5006294;28;94644;-80
2023/06/25 03:42:26;;;;;;;12.68;9.27;;;;;;;;;;5011826;28;92171;-79
2023/06/25 03:44:53;;;;;;;12.35;9.55;;;;;;;;;;5016498;28;95602;-79
2023/06/25 03:47:24;;;;;;;27.52;9.32;;;;;;;;;;5004282;28;94467;-80
2023/06/25 03:49:51;;;;;;;9.75;8.50;;;;;;;;;;5032790;27;94855;-80
2023/06/25 03:52:18;;;;;;;11.43;8.13;;;;;;;;;;4989414;28;95683;-80
2023/06/25 03:54:45;;;;;;;12.20;8.77;;;;;;;;;;5014446;28;92261;-80
2023/06/25 03:57:11;;;;;;;10.70;8.52;;;;;;;;;;5004663;28;92820;-80
2023/06/25 03:59:38;;;;;;;12.55;8.68;;;;;;;;;;5012514;28;92931;-80
2023/06/25 04:02:05;;;;;;;12.05;8.80;;;;;;;;;;5015441;28;95151;-80
2023/06/25 04:04:32;;;;;;;14.55;8.60;;;;;;;;;;5007033;28;94628;-80
2023/06/25 04:06:58;;;;;;;9.65;7.85;;;;;;;;;;4999683;28;93774;-80
2023/06/25 04:09:25;;;;;;;9.55;7.78;;;;;;;;;;5001884;28;93640;-80
2023/06/25 04:11:52;;;;;;;14.95;9.18;;;;;;;;;;4997872;28;95021;-80
2023/06/25 04:14:18;;;;;;;11.05;8.48;;;;;;;;;;4990734;28;92320;-80
2023/06/25 04:16:46;;;;;;;17.63;9.68;;;;;;;;;;5017886;28;94232;-80
2023/06/25 04:19:12;;;;;;;10.20;8.30;;;;;;;;;;5003826;28;92132;-80
2023/06/25 04:21:39;;;;;;;15.88;9.70;;;;;;;;;;4998321;28;92912;-80
2023/06/25 04:24:06;;;;;;;11.15;8.75;;;;;;;;;;4987528;28;92561;-80
2023/06/25 04:26:33;;;;;;;12.80;9.05;;;;;;;;;;4993247;28;93004;-80
2023/06/25 04:28:59;;;;;;;15.88;10.48;;;;;;;;;;4989267;28;94135;-80
2023/06/25 04:31:26;;;;;;;13.10;8.75;;;;;;;;;;4989297;28;92970;-80
2023/06/25 04:33:54;;;;;;;15.43;8.73;;;;;;;;;;4991386;28;94083;-80
2023/06/25 04:36:22;;;;;;;10.65;8.30;;;;;;;;;;4970272;28;95275;-79
2023/06/25 04:38:54;;;;;;;15.73;10.50;;;;;;;;;;5000691;28;96512;-80
2023/06/25 04:41:24;;;;;;;16.13;11.07;;;;;;;;;;5014249;28;92362;-80
2023/06/25 04:43:50;;;;;;;14.95;10.75;;;;;;;;;;4987388;28;94985;-80
2023/06/25 04:46:17;;;;;;;14.63;10.43;;;;;;;;;;5016523;28;93342;-80
2023/06/25 04:48:45;;;;;;;21.08;14.35;;;;;;;;;;5012095;28;92437;-80
2023/06/25 04:51:13;;;;;;;18.85;13.02;;;;;;;;;;5008559;28;96127;-80
2023/06/25 04:53:39;;;;;;;17.55;13.35;;;;;;;;;;5010694;28;94041;-79
2023/06/25 04:56:06;;;;;;;19.77;14.43;;;;;;;;;;5010283;28;91967;-80
2023/06/25 04:58:35;;;;;;;22.77;13.82;;;;;;;;;;5030183;28;94113;-80
2023/06/25 05:01:02;;;;;;;18.38;12.70;;;;;;;;;;5013030;28;97657;-80
2023/06/25 05:03:29;;;;;;;23.98;14.50;;;;;;;;;;5011142;28;92347;-79
2023/06/25 05:05:56;;;;;;;25.45;15.93;;;;;;;;;;4988644;28;94789;-79
2023/06/25 05:08:22;;;;;;;20.90;14.35;;;;;;;;;;4984217;28;92444;-79
2023/06/25 05:10:49;;;;;;;21.35;14.60;;;;;;;;;;5008603;28;93933;-79
2023/06/25 05:13:15;;;;;;;19.45;13.60;;;;;;;;;;5011789;28;93227;-80
2023/06/25 05:15:42;;;;;;;18.17;13.07;;;;;;;;;;5017091;28;92565;-80
2023/06/25 05:18:08;;;;;;;18.55;13.63;;;;;;;;;;5010254;28;94263;-80
2023/06/25 05:20:35;;;;;;;23.75;13.82;;;;;;;;;;4989793;28;94576;-80
2023/06/25 05:23:03;;;;;;;20.33;13.32;;;;;;;;;;5007634;28;94781;-80
2023/06/25 05:25:31;;;;;;;20.10;14.68;;;;;;;;;;4993055;28;93964;-80
2023/06/25 05:27:58;;;;;;;20.95;13.50;;;;;;;;;;5001439;28;94438;-80
2023/06/25 05:30:25;;;;;;;18.48;13.07;;;;;;;;;;5016669;28;92161;-80
2023/06/25 05:32:52;;;;;;;20.63;15.20;;;;;;;;;;4990840;28;92217;-80
2023/06/25 05:35:18;;;;;;;17.65;12.95;;;;;;;;;;5005702;28;95746;-80
2023/06/25 05:37:45;;;;;;;19.92;13.48;;;;;;;;;;4992877;28;94613;-80
2023/06/25 05:40:12;;;;;;;19.33;13.32;;;;;;;;;;5009948;28;92375;-80
2023/06/25 05:42:38;;;;;;;21.95;14.43;;;;;;;;;;5007652;28;92055;-80
2023/06/25 05:45:05;;;;;;;18.15;13.85;;;;;;;;;;5007088;28;92732;-80
2023/06/25 05:47:32;;;;;;;21.67;15.35;;;;;;;;;;5010589;28;93875;-80
2023/06/25 05:49:58;;;;;;;21.05;12.95;;;;;;;;;;4987574;28;94818;-80
2023/06/25 05:52:25;;;;;;;17.10;13.50;;;;;;;;;;5009830;28;95400;-80
2023/06/25 05:54:52;;;;;;;17.85;12.88;;;;;;;;;;5021293;28;92376;-80
2023/06/25 05:57:18;;;;;;;20.60;13.73;;;;;;;;;;5020622;28;92370;-80
2023/06/25 05:59:45;;;;;;;21.92;14.45;;;;;;;;;;5021761;28;92441;-80
2023/06/25 06:02:12;;;;;;;25.75;14.80;;;;;;;;;;5020047;28;93896;-80
2023/06/25 06:04:38;;;;;;;23.33;14.68;;;;;;;;;;5005507;28;91975;-80
2023/06/25 06:07:05;;;;;;;21.95;14.52;;;;;;;;;;5003811;28;93776;-80
2023/06/25 06:09:31;;;;;;;20.83;13.63;;;;;;;;;;4993626;28;92283;-80
2023/06/25 06:11:58;;;;;;;21.70;13.23;;;;;;;;;;5000814;28;93040;-80
2023/06/25 06:14:25;;;;;;;24.23;14.80;;;;;;;;;;5001726;28;96939;-80
2023/06/25 06:16:51;;;;;;;18.92;13.82;;;;;;;;;;5007079;28;93598;-80
2023/06/25 06:19:18;;;;;;;23.60;14.63;;;;;;;;;;5010824;28;92243;-81
2023/06/25 06:21:45;;;;;;;18.17;12.13;;;;;;;;;;5012220;28;92594;-81
2023/06/25 06:24:12;;;;;;;19.23;12.50;;;;;;;;;;5007668;28;92306;-80
2023/06/25 06:26:38;;;;;;;18.13;12.43;;;;;;;;;;5007795;28;94664;-80
2023/06/25 06:29:05;;;;;;;27.33;12.80;;;;;;;;;;5002756;28;92375;-80
2023/06/25 06:31:32;;;;;;;16.48;12.50;;;;;;;;;;5004654;28;92858;-81
2023/06/25 06:33:58;;;;;;;23.48;13.55;;;;;;;;;;4995436;28;93172;-80
2023/06/25 06:36:25;;;;;;;17.67;11.85;;;;;;;;;;5011562;28;94213;-81
2023/06/25 06:38:51;;;;;;;21.30;13.38;;;;;;;;;;4999266;28;95556;-80
2023/06/25 06:41:18;;;;;;;16.90;12.45;;;;;;;;;;5014634;28;92104;-80
2023/06/25 06:43:45;;;;;;;16.02;11.98;;;;;;;;;;5009061;28;92457;-80
2023/06/25 06:46:12;;;;;;;17.58;12.20;;;;;;;;;;5023632;28;93095;-80
2023/06/25 06:48:38;;;;;;;14.90;11.45;;;;;;;;;;5010558;28;92460;-80
2023/06/25 06:51:05;;;;;;;16.80;11.43;;;;;;;;;;5006860;28;92581;-80
2023/06/25 06:53:31;;;;;;;15.70;11.43;;;;;;;;;;5008985;28;92372;-80
2023/06/25 06:55:58;;;;;;;18.10;10.50;;;;;;;;;;4997674;28;91844;-80
2023/06/25 06:58:24;;;;;;;15.88;10.70;;;;;;;;;;5004518;28;92464;-80
2023/06/25 07:00:51;;;;;;;19.25;11.68;;;;;;;;;;4994638;28;92251;-80
2023/06/25 07:03:17;;;;;;;18.17;11.18;;;;;;;;;;5006480;28;94867;-80
2023/06/25 07:05:44;;;;;;;16.15;10.48;;;;;;;;;;5017200;28;95331;-80
2023/06/25 07:08:14;;;;;;;19.13;12.38;;;;;;;;;;5017831;28;93811;-80
2023/06/25 07:10:41;;;;;;;15.25;11.40;;;;;;;;;;5009633;28;92565;-79
2023/06/25 07:13:07;;;;;;;15.55;10.88;;;;;;;;;;5023031;28;93565;-80
2023/06/25 07:15:35;;;;;;;17.65;11.93;;;;;;;;;;5022194;28;91988;-80
2023/06/25 07:18:03;;;;;;;15.68;10.85;;;;;;;;;;5024611;28;92318;-81
2023/06/25 07:20:29;;;;;;;13.38;10.75;;;;;;;;;;5006481;28;91593;-80
2023/06/25 07:22:56;;;;;;;15.70;10.95;;;;;;;;;;5024019;28;93637;-80
2023/06/25 07:25:22;;;;;;;12.77;9.70;;;;;;;;;;5020577;28;92984;-81
2023/06/25 07:27:49;;;;;;;21.50;10.25;;;;;;;;;;5015180;28;95623;-80
2023/06/25 07:30:15;;;;;;;19.23;10.82;;;;;;;;;;4998848;28;96230;-81
2023/06/25 07:32:41;;;;;;;20.58;10.77;;;;;;;;;;5014904;28;94615;-81
2023/06/25 07:35:08;;;;;;;15.35;10.63;;;;;;;;;;5017765;28;92879;-81
2023/06/25 07:37:35;;;;;;;12.90;9.00;;;;;;;;;;5007538;28;92301;-80
2023/06/25 07:40:04;;;;;;;16.50;10.52;;;;;;;;;;4997540;28;94455;-80
2023/06/25 07:42:31;;;;;;;16.67;10.35;;;;;;;;;;5001344;28;93939;-80
2023/06/25 07:44:57;;;;;;;18.58;9.93;;;;;;;;;;4997955;28;92289;-80
2023/06/25 07:47:25;;;;;;;16.67;9.93;;;;;;;;;;4994174;28;94551;-80
2023/06/25 07:49:51;;;;;;;12.50;8.75;;;;;;;;;;4994366;28;92488;-80
2023/06/25 07:52:18;;;;;;;13.88;9.68;;;;;;;;;;4994368;28;94737;-80
2023/06/25 07:54:45;;;;;;;15.48;11.13;;;;;;;;;;4999260;28;93036;-80
2023/06/25 07:57:12;;;;;;;14.95;8.52;;;;;;;;;;4987023;28;94540;-80
2023/06/25 07:59:38;;;;;;;9.63;8.30;;;;;;;;;;5002184;28;92514;-80
2023/06/25 08:02:19;;;;;;;11.60;7.72;;;;;;;;;;5000613;28;93306;-80
2023/06/25 08:04:45;;;;;;;17.20;8.07;;;;;;;;;;5002602;28;93000;-81
2023/06/25 08:07:12;;;;;;;11.65;7.15;;;;;;;;;;5005343;28;92389;-80
2023/06/25 08:09:40;;;;;;;12.13;7.30;;;;;;;;;;4989333;28;95087;-80
2023/06/25 08:12:07;;;;;;;15.65;8.30;;;;;;;;;;5000888;28;92358;-80
2023/06/25 08:14:33;;;;;;;15.27;7.97;;;;;;;;;;4997601;28;93039;-80
2023/06/25 08:16:59;;;;;;;14.93;7.07;;;;;;;;;;5004671;28;94993;-80
2023/06/25 08:19:26;;;;;;;12.85;6.80;;;;;;;;;;5009758;28;92219;-80
2023/06/25 08:21:53;;;;;;;11.27;6.13;;;;;;;;;;5002940;28;92234;-80
2023/06/25 08:24:19;;;;;;;10.25;6.30;;;;;;;;;;5003405;28;94838;-81
2023/06/25 08:26:46;;;;;;;9.98;7.10;;;;;;;;;;5003509;28;93163;-81
2023/06/25 08:29:12;;;;;;;8.57;6.60;;;;;;;;;;5006712;28;94664;-81
2023/06/25 08:31:39;;;;;;;8.52;7.10;;;;;;;;;;5009311;28;94409;-80
2023/06/25 08:34:06;;;;;;;9.55;6.53;;;;;;;;;;5006190;28;93593;-81
2023/06/25 08:36:33;;;;;;;18.80;7.43;;;;;;;;;;5004939;28;94176;-81
2023/06/25 08:38:59;;;;;;;8.65;6.15;;;;;;;;;;5003000;28;93196;-80
2023/06/25 08:41:26;;;;;;;7.50;6.07;;;;;;;;;;5003591;28;94810;-80
2023/06/25 08:43:53;;;;;;;11.32;5.45;;;;;;;;;;5000935;28;93983;-81
2023/06/25 08:46:21;;;;;;;10.07;5.05;;;;;;;;;;5006208;28;93310;-81
2023/06/25 08:48:50;;;;;;;8.80;5.88;;;;;;;;;;5001543;28;92450;-81
2023/06/25 08:51:20;;;;;;;15.52;6.07;;;;;;;;;;5005146;28;93975;-80
2023/06/25 08:53:47;;;;;;;7.18;5.80;;;;;;;;;;5008682;28;93070;-81
2023/06/25 08:56:17;;;;;;;12.77;7.10;;;;;;;;;;5008700;28;92504;-81
2023/06/25 08:58:44;;;;;;;9.40;6.20;;;;;;;;;;5008084;28;91827;-80
2023/06/25 09:01:14;;;;;;;7.57;6.18;;;;;;;;;;4990522;28;95974;-80
2023/06/25 09:03:42;;;;;;;6.97;4.72;;;;;;;;;;5006370;28;92484;-81
2023/06/25 09:06:13;;;;;;;7.95;5.45;;;;;;;;;;5002192;28;96842;-81
2023/06/25 09:08:40;;;;;;;;;;;;;;;;;;5021553;28;92397;-81
2023/06/25 09:11:07;;;;;;;9.40;5.25;;;;;;;;;;5021054;28;106792;-81
2023/06/25 09:13:33;;;;;;;13.52;4.97;;;;;;;;;;5019632;28;93212;-81
2023/06/25 09:16:01;;;;;;;9.45;4.40;;;;;;;;;;5023848;28;92429;-80
2023/06/25 09:18:29;;;;;;;4.50;3.45;;;;;;;;;;5017021;28;93113;-81
2023/06/25 09:20:56;;;;;;;5.10;3.30;;;;;;;;;;4987268;28;93210;-81
2023/06/25 09:23:23;;;;;;;4.00;3.05;;;;;;;;;;5012964;28;93579;-80
2023/06/25 09:25:51;;;;;;;8.18;2.70;;;;;;;;;;5019490;28;92189;-81
2023/06/25 09:28:18;;;;;;;2.97;2.78;;;;;;;;;;5013625;28;94765;-81
2023/06/25 09:30:45;;;;;;;5.32;2.45;;;;;;;;;;5007858;28;94240;-81
2023/06/25 09:33:12;;;;;;;3.58;3.28;;;;;;;;;;5025581;28;92151;-81
2023/06/25 09:35:39;;;;;;;9.45;4.05;;;;;;;;;;5007816;28;93875;-81
2023/06/25 09:38:05;;;;;;;4.22;3.53;;;;;;;;;;5013624;28;92264;-81
2023/06/25 09:40:32;;;;;;;6.05;3.53;;;;;;;;;;5005924;28;94209;-80
2023/06/25 09:42:59;;;;;;;6.07;2.97;;;;;;;;;;4999306;28;95040;-81
2023/06/25 09:45:26;;;;;;;3.42;3.10;;;;;;;;;;5014780;28;95054;-81
2023/06/25 09:47:56;;;;;;;8.85;3.28;;;;;;;;;;5005321;28;92159;-81
2023/06/25 09:50:35;;;;;;;9.40;3.25;;;;;;;;;;5014899;28;92100;-81
2023/06/25 09:53:09;;;;;;;5.13;3.50;;;;;;;;;;5007104;28;92980;-81
2023/06/25 09:55:37;;;;;;;13.52;4.30;;;;;;;;;;4997185;28;94821;-81
2023/06/25 09:58:04;;;;;;;13.13;4.07;;;;;;;;;;5019992;28;94233;-82
2023/06/25 10:00:32;;;;;;;4.60;4.03;;;;;;;;;;5010331;28;93464;-81
2023/06/25 10:02:58;;;;;;;4.10;3.70;;;;;;;;;;5006220;28;95668;-82
2023/06/25 10:05:25;;;;;;;4.95;3.40;;;;;;;;;;5011200;28;92294;-82
2023/06/25 10:07:52;;;;;;;8.98;3.53;;;;;;;;;;5013133;28;92602;-82
2023/06/25 10:10:19;;;;;;;5.13;3.75;;;;;;;;;;5009117;28;92758;-81
2023/06/25 10:12:46;;;;;;;5.85;3.95;;;;;;;;;;5017480;28;92013;-82
2023/06/25 10:15:13;;;;;;;4.43;3.55;;;;;;;;;;5009562;28;94171;-81
2023/06/25 10:17:50;;;;;;;9.25;3.78;;;;;;;;;;5021629;28;92826;-82
2023/06/25 10:20:24;;;;;;;4.22;3.58;;;;;;;;;;5021177;28;97631;-81
2023/06/25 10:23:01;;;;;;;17.42;3.88;;;;;;;;;;5011637;28;95565;-82
2023/06/25 10:25:28;;;;;;;4.78;4.05;;;;;;;;;;5023122;28;94487;-81
2023/06/25 10:28:05;;;;;;;4.18;3.47;;;;;;;;;;5012947;28;92371;-82
2023/06/25 10:30:35;;;;;;;5.40;4.00;;;;;;;;;;5000902;28;93081;-81
2023/06/25 10:33:02;;;;;;;10.20;3.50;;;;;;;;;;5010855;28;93413;-81
2023/06/25 10:35:34;;;;;;;4.28;3.50;;;;;;;;;;5003407;28;92324;-82
2023/06/25 10:38:02;;;;;;;4.18;2.85;;;;;;;;;;4998684;28;95263;-81
2023/06/25 10:40:32;;;;;;;6.22;3.70;;;;;;;;;;5016216;28;93261;-82
2023/06/25 10:42:58;;;;;;;6.00;3.43;;;;;;;;;;5000362;28;92527;-81
2023/06/25 10:45:25;;;;;;;5.20;3.28;;;;;;;;;;4998377;28;95573;-81
2023/06/25 10:48:01;;;;;;;4.82;3.83;;;;;;;;;;5022746;28;93118;-81
2023/06/25 10:50:31;;;;;;;5.60;3.60;;;;;;;;;;4998644;28;92395;-81
2023/06/25 10:52:58;;;;;;;5.25;3.33;;;;;;;;;;4997439;28;94414;-82
2023/06/25 10:55:25;;;;;;;4.28;3.17;;;;;;;;;;5017706;28;92360;-81
2023/06/25 10:57:52;;;;;;;7.55;4.75;;;;;;;;;;4999884;28;92420;-81
2023/06/25 11:00:22;;;;;;;4.22;3.10;;;;;;;;;;5005280;28;92392;-81
2023/06/25 11:02:50;;;;;;;3.63;3.33;;;;;;;;;;4999349;28;91845;-81
2023/06/25 11:05:18;;;;;;;4.78;3.03;;;;;;;;;;4995511;28;92509;-82
2023/06/25 11:07:44;;;;;;;6.05;3.33;;;;;;;;;;5017297;28;92469;-82
2023/06/25 11:10:13;;;;;;;3.90;3.45;;;;;;;;;;4995716;28;95116;-82
2023/06/25 11:12:39;;;;;;;7.50;3.47;;;;;;;;;;5016550;28;92218;-82
2023/06/25 11:15:06;;;;;;;4.30;3.47;;;;;;;;;;5016932;28;92170;-83
2023/06/25 11:17:33;;;;;;;5.20;3.35;;;;;;;;;;5008450;28;92925;-82
2023/06/25 11:19:59;;;;;;;8.10;3.75;;;;;;;;;;5006514;28;92872;-82
2023/06/25 11:22:28;;;;;;;3.42;3.13;;;;;;;;;;5020876;28;91903;-82
2023/06/25 11:24:56;;;;;;;7.38;3.47;;;;;;;;;;5018519;28;92158;-82
2023/06/25 11:27:26;;;;;;;9.05;3.22;;;;;;;;;;5003398;28;92134;-82
2023/06/25 11:29:56;;;;;;;3.43;3.13;;;;;;;;;;5000665;28;92253;-82
2023/06/25 11:32:24;;;;;;;5.65;3.55;;;;;;;;;;5003074;28;92481;-82
2023/06/25 11:34:51;;;;;;;5.22;3.47;;;;;;;;;;4992517;28;94428;-82
2023/06/25 11:37:19;;;;;;;4.55;3.42;;;;;;;;;;5001130;28;94026;-82
2023/06/25 11:39:46;;;;;;;4.43;3.50;;;;;;;;;;5008033;28;92517;-82
2023/06/25 11:42:17;;;;;;;3.28;2.97;;;;;;;;;;4997631;28;92484;-80
2023/06/25 11:44:44;;;;;;;3.80;3.50;;;;;;;;;;5000986;28;92335;-79
2023/06/25 11:47:13;;;;;;;4.80;3.38;;;;;;;;;;5015802;28;93729;-80
2023/06/25 11:49:40;;;;;;;4.43;3.67;;;;;;;;;;4993242;28;92361;-82
2023/06/25 11:52:06;;;;;;;6.90;3.53;;;;;;;;;;4985956;28;92096;-83
2023/06/25 11:54:33;;;;;;;6.22;3.33;;;;;;;;;;5005206;28;92005;-82
2023/06/25 11:56:59;;;;;;;6.40;3.25;;;;;;;;;;4997232;28;95659;-80
2023/06/25 11:59:26;;;;;;;4.68;3.40;;;;;;;;;;4999781;28;94701;-80
2023/06/25 12:01:53;;;;;;;4.63;3.38;;;;;;;;;;5007441;28;92031;-81
2023/06/25 12:04:19;;;;;;;8.95;3.60;;;;;;;;;;5009053;28;92454;-80
2023/06/25 12:06:46;;;;;;;3.55;3.25;;;;;;;;;;5006238;28;95098;-81
2023/06/25 12:09:13;;;;;;;4.93;3.35;;;;;;;;;;5007032;28;92090;-81
2023/06/25 12:11:40;;;;;;;5.25;3.83;;;;;;;;;;5000666;28;92489;-81
2023/06/25 12:14:06;;;;;;;5.30;3.88;;;;;;;;;;5006962;28;92399;-81
2023/06/25 12:16:33;;;;;;;6.22;3.90;;;;;;;;;;4996696;28;92355;-80
2023/06/25 12:18:59;;;;;;;4.25;3.78;;;;;;;;;;4981971;28;92269;-82
2023/06/25 12:21:26;;;;;;;4.40;4.00;;;;;;;;;;5004048;28;93061;-81
2023/06/25 12:23:53;;;;;;;5.93;3.67;;;;;;;;;;5009248;28;94616;-80
2023/06/25 12:26:19;;;;;;;4.97;3.72;;;;;;;;;;5006528;28;92075;-80
2023/06/25 12:28:48;;;;;;;3.90;3.58;;;;;;;;;;5012056;28;92464;-81
2023/06/25 12:31:15;;;;;;;3.63;3.33;;;;;;;;;;5010760;28;92212;-80
2023/06/25 12:33:42;;;;;;;4.70;3.63;;;;;;;;;;5004843;28;92944;-80
2023/06/25 12:36:08;;;;;;;5.25;3.40;;;;;;;;;;5013579;28;92909;-81
2023/06/25 12:38:35;;;;;;;6.07;3.97;;;;;;;;;;4999492;28;92352;-80
2023/06/25 12:41:01;;;;;;;6.30;3.55;;;;;;;;;;5006847;28;92072;-81
2023/06/25 12:43:28;;;;;;;4.68;3.55;;;;;;;;;;4997349;28;92343;-80
2023/06/25 12:45:54;;;;;;;4.68;4.03;;;;;;;;;;5019395;28;93085;-81
2023/06/25 12:48:21;;;;;;;4.57;4.15;;;;;;;;;;4998192;28;94833;-80
2023/06/25 12:50:47;;;;;;;7.32;3.60;;;;;;;;;;5007110;28;96464;-81
2023/06/25 12:53:14;;;;;;;6.38;3.88;;;;;;;;;;5015667;28;92865;-81
2023/06/25 12:55:41;;;;;;;4.30;3.67;;;;;;;;;;5003613;28;94082;-81
2023/06/25 12:58:08;;;;;;;4.70;3.58;;;;;;;;;;5016186;28;92580;-81
2023/06/25 13:00:35;;;;;;;4.15;3.42;;;;;;;;;;5007854;28;92188;-80
2023/06/25 13:03:21;;;;;;;6.18;3.35;;;;;;;;;;5005973;28;93307;-81
2023/06/25 13:05:48;;;;;;;4.82;3.60;;;;;;;;;;5004870;28;92231;-80
2023/06/25 13:08:15;;;;;;;3.72;3.42;;;;;;;;;;4999472;28;92326;-80
2023/06/25 13:10:41;;;;;;;6.30;3.20;;;;;;;;;;5012819;28;92291;-80
2023/06/25 13:13:08;;;;;;;6.90;3.70;;;;;;;;;;5012433;28;96179;-79
2023/06/25 13:15:35;;;;;;;8.88;3.55;;;;;;;;;;5011701;28;94649;-80
2023/06/25 13:18:02;;;;;;;5.15;3.47;;;;;;;;;;5002324;28;93233;-80
2023/06/25 13:20:29;;;;;;;5.80;3.80;;;;;;;;;;5004002;28;92341;-80
2023/06/25 13:22:56;;;;;;;4.38;3.85;;;;;;;;;;5004491;28;93574;-81
2023/06/25 13:25:22;;;;;;;3.63;3.30;;;;;;;;;;5003394;28;92297;-80
2023/06/25 13:27:48;;;;;;;3.30;3.10;;;;;;;;;;4999634;28;92365;-79
2023/06/25 13:30:15;;;;;;;5.13;3.20;;;;;;;;;;5002598;28;92157;-80
2023/06/25 13:32:42;;;;;;;8.48;3.42;;;;;;;;;;5012923;28;92416;-80
2023/06/25 13:35:08;;;;;;;6.95;3.70;;;;;;;;;;5002860;28;92964;-80
2023/06/25 13:37:35;;;;;;;6.75;3.50;;;;;;;;;;5004147;28;94736;-81
2023/06/25 13:40:03;;;;;;;10.88;2.95;;;;;;;;;;5013045;28;93031;-81
2023/06/25 13:42:30;;;;;;;4.88;2.83;;;;;;;;;;5001847;28;92483;-81
2023/06/25 13:44:58;;;;;;;5.70;2.80;;;;;;;;;;5001225;28;92397;-81
2023/06/25 13:47:25;;;;;;;6.70;3.15;;;;;;;;;;5009423;28;92471;-81
2023/06/25 13:49:52;;;;;;;6.88;3.20;;;;;;;;;;5006112;28;93169;-81
2023/06/25 13:52:18;;;;;;;4.25;2.97;;;;;;;;;;5003167;28;96020;-81
2023/06/25 13:54:45;;;;;;;12.95;3.33;;;;;;;;;;5011778;28;91818;-81
2023/06/25 13:57:12;;;;;;;2.65;2.45;;;;;;;;;;5006845;28;92335;-81
2023/06/25 13:59:38;;;;;;;4.50;3.00;;;;;;;;;;5015676;28;93970;-80
2023/06/25 14:02:05;;;;;;;2.85;2.65;;;;;;;;;;5003012;28;94332;-81
2023/06/25 14:04:32;;;;;;;5.30;3.35;;;;;;;;;;5004005;28;92950;-81
2023/06/25 14:07:02;;;;;;;3.08;2.80;;;;;;;;;;5007319;28;92392;-81
2023/06/25 14:09:29;;;;;;;3.22;2.42;;;;;;;;;;5003832;28;92453;-81
2023/06/25 14:11:55;;;;;;;4.45;2.42;;;;;;;;;;5008685;28;93201;-82
2023/06/25 14:14:22;;;;;;;4.50;2.22;;;;;;;;;;5004605;28;92575;-81
2023/06/25 14:16:48;;;;;;;4.57;2.60;;;;;;;;;;5007727;28;92678;-81
2023/06/25 14:19:16;;;;;;;3.85;2.33;;;;;;;;;;5004694;28;92021;-81
2023/06/25 14:21:44;;;;;;;9.83;2.80;;;;;;;;;;5013890;28;92423;-81
2023/06/25 14:24:12;;;;;;;3.38;2.35;;;;;;;;;;4986759;28;93778;-81
2023/06/25 14:26:38;;;;;;;4.03;2.38;;;;;;;;;;5018142;28;96378;-81
2023/06/25 14:29:05;;;;;;;8.75;2.33;;;;;;;;;;5017570;28;96874;-80
2023/06/25 14:31:37;;;;;;;5.15;2.05;;;;;;;;;;5017397;28;92305;-81
2023/06/25 14:34:03;;;;;;;4.68;2.58;;;;;;;;;;5010984;28;92696;-81